Terminal Aerodrome Forecast
Issued by NWS Melbourne, FL

Home | Current Version | Previous Version | Text Only | Print | Product List | Glossary On
Versions: 1 2 3 4 5 6 7 8 9 10 11 12 13 14 15 16
000
FTUS42 KMLB 230520
TAFMLB
TAF
KMLB 230520Z 2306/2406 02006KT P6SM FEW030 BKN250
     FM231400 06012KT P6SM SCT030
     FM231800 06013G21KT P6SM SCT035 SCT050
     FM240000 07012KT P6SM BKN060
     FM240200 07007KT P6SM BKN060=

USA.gov is the U.S. government's official web portal to all federal, state and local government web resources and services.